Weather observations for the past three days for
San Juan, Luis Munoz Marin International Airport
| Date | Time (ast) | Wind (kph) | Vis. (km) | Weather | Sky Cond. | Temperature (ºC) | Relative Humidity | Wind Chill (°C) | Heat Index (°C) | Pressure | Precipitation (cm) | ||||||
|---|---|---|---|---|---|---|---|---|---|---|---|---|---|---|---|---|---|
| Air | Dwpt | 6 hour | altimeter (cm) | sea level (mb) | 1 hr | 3 hr | 6 hr | ||||||||||
| Max. | Min. | ||||||||||||||||
| 10 | 08:56 | E 26 G 37 | 16.09 | Partly Cloudy | FEW035 SCT060 SCT085 | 29 | 21 | 62% | 31 | 76.38 | 0.0 | ||||||
| 10 | 07:56 | E 11 | 16.09 | Partly Cloudy | FEW032 SCT060 SCT085 | 28 | 22 | 70% | 31 | 76.33 | 0.0 | ||||||
| 10 | 06:56 | SE 7 | 16.09 | Partly Cloudy | FEW028 SCT060 SCT085 | 25.6 | 21.7 | 79% | 27 | 76.3 | 1017.2 | ||||||
| 10 | 05:56 | Calm | 16.09 | Partly Cloudy | SCT028 SCT075 | 26 | 21 | 74% | 27 | 76.28 | 0.0 | ||||||
| 10 | 04:56 | SE 6 | 16.09 | Partly Cloudy | FEW028 SCT090 | 25 | 21.7 | 82% | 26 | 76.23 | 1016.0 | 0.08 | |||||
| 10 | 03:56 | SE 6 | 16.09 | Partly Cloudy | FEW024 SCT080 | 25 | 22 | 83% | 26 | 76.17 | 0.0 | ||||||
| 10 | 02:56 | E 6 | 16.09 | Partly Cloudy | FEW024 SCT080 | 26 | 22 | 79% | 28 | 76.17 | 0.0 | ||||||
| 10 | 01:56 | SE 9 | 16.09 | Partly Cloudy | SCT024 SCT095 | 26 | 22 | 79% | 28 | 76.2 | 0.0 | ||||||
| 10 | 00:56 | E 13 | 16.09 | Partly Cloudy | SCT027 | 26 | 22 | 79% | 28 | 76.23 | 0.0 | ||||||
| 09 | 23:56 | SE 9 | 16.09 | Partly Cloudy | FEW030 SCT090 | 27 | 21 | 70% | 29 | 76.25 | 0.0 | ||||||
| 09 | 22:56 | E 17 | 16.09 | Partly Cloudy | FEW030 SCT090 | 26.7 | 21.1 | 71% | 28 | 76.3 | 1016.9 | ||||||
| 09 | 21:56 | E 28 | 16.09 | Partly Cloudy | SCT027 SCT037 | 27 | 22 | 74% | 29 | 76.28 | 0.0 | ||||||
| 09 | 20:56 | E 22 G 39 | 16.09 | Partly Cloudy | SCT024 | 27 | 22 | 74% | 29 | 76.25 | 0.0 | ||||||
| 09 | 19:56 | E 26 G 37 | 16.09 | Partly Cloudy | SCT028 SCT090 | 27 | 22 | 74% | 29 | 76.23 | 0.0 | ||||||
| 09 | 18:56 | E 17 | 16.09 | Partly Cloudy | FEW026 SCT039 SCT085 | 27.2 | 21.1 | 69% | 29 | 76.17 | 1015.5 | ||||||
| 09 | 17:56 | E 31 G 43 | 16.09 | Partly Cloudy | FEW028 SCT035 SCT090 | 28 | 22 | 70% | 31 | 76.15 | 0.0 | ||||||
| 09 | 16:56 | E 31 G 48 | 16.09 | A Few Clouds | FEW031 | 28.9 | 21.7 | 65% | 32 | 76.12 | 1014.7 | ||||||
| 09 | 15:56 | E 33 G 46 | 16.09 | A Few Clouds and Breezy | FEW037 | 29.4 | 20.6 | 59% | 32 | 76.12 | 1014.8 | ||||||
| 09 | 14:56 | NE 33 G 50 | 16.09 | A Few Clouds and Breezy | FEW037 | 30 | 21 | 59% | 33 | 76.12 | 0.0 | ||||||
| 09 | 13:56 | NE 37 G 50 | 16.09 | A Few Clouds and Breezy | FEW037 | 30 | 21 | 59% | 33 | 76.17 | 0.0 | ||||||
| 09 | 12:56 | E 35 G 44 | 16.09 | Partly Cloudy and Breezy | FEW038 SCT055 | 30 | 21 | 59% | 33 | 76.23 | 0.0 | ||||||
| 09 | 11:56 | NE 33 G 43 | 16.09 | Partly Cloudy and Breezy | FEW038 SCT060 | 30 | 21 | 59% | 33 | 76.25 | 0.0 | ||||||
| 09 | 10:56 | E 26 | 16.09 | Partly Cloudy | FEW034 SCT050 | 29.4 | 21.7 | 63% | 32 | 76.3 | 1017.0 | ||||||
| 09 | 09:56 | E 26 | 16.09 | Partly Cloudy | FEW036 SCT055 | 29 | 21 | 62% | 31 | 76.3 | 0.0 | ||||||
| 09 | 08:56 | E 26 G 35 | 16.09 | Partly Cloudy | FEW032 SCT065 | 29 | 21 | 62% | 31 | 76.28 | 0.0 | ||||||
| 09 | 07:56 | E 13 | 16.09 | Partly Cloudy | FEW032 SCT080 | 27 | 21 | 70% | 29 | 76.25 | 0.0 | ||||||
| 09 | 06:56 | SE 6 | 16.09 | Partly Cloudy | FEW034 SCT060 | 26.1 | 20.6 | 72% | 28 | 76.23 | 1016.0 | ||||||
| 09 | 05:56 | SE 6 | 16.09 | Partly Cloudy | SCT028 | 24 | 21 | 83% | 24 | 76.17 | 0.0 | ||||||
| 09 | 04:56 | SE 6 | 16.09 | A Few Clouds | FEW025 | 25 | 21 | 79% | 26 | 76.12 | 0.0 | ||||||
| 09 | 03:56 | SE 6 | 16.09 | A Few Clouds | FEW025 | 25 | 21 | 79% | 26 | 76.12 | 0.0 | ||||||
| 09 | 02:56 | SE 6 | 16.09 | A Few Clouds | FEW025 | 26 | 22 | 79% | 28 | 76.12 | 0.0 | ||||||
| 09 | 01:56 | E 7 | 16.09 | Partly Cloudy | SCT028 | 26 | 21 | 74% | 27 | 76.15 | 0.0 | ||||||
| 09 | 00:56 | E 9 | 16.09 | Partly Cloudy | FEW025 SCT050 | 26 | 22 | 79% | 28 | 76.17 | 0.0 | ||||||
| 08 | 23:56 | E 13 | 16.09 | Partly Cloudy | FEW025 SCT050 | 26 | 23 | 84% | 28 | 76.23 | 0.0 | ||||||
| 08 | 22:56 | E 15 | 16.09 | Partly Cloudy | SCT025 | 27 | 22 | 74% | 29 | 76.23 | 0.0 | ||||||
| 08 | 21:56 | E 19 | 16.09 | Partly Cloudy | SCT024 | 27 | 22 | 74% | 29 | 76.23 | 0.0 | ||||||
| 08 | 20:56 | E 19 | 16.09 | Partly Cloudy | SCT024 | 26.7 | 22.2 | 76% | 29 | 76.2 | 1015.9 | ||||||
| 08 | 19:56 | E 15 | 16.09 | Partly Cloudy | SCT024 | 27 | 22 | 74% | 29 | 76.15 | 0.0 | ||||||
| 08 | 18:56 | E 20 | 16.09 | A Few Clouds | FEW032 FEW043 | 27 | 22 | 74% | 29 | 76.1 | 0.0 | ||||||
| 08 | 17:56 | E 30 | 16.09 | A Few Clouds | FEW038 | 28 | 22 | 70% | 31 | 76.05 | 0.0 | ||||||
| 08 | 16:56 | E 30 | 16.09 | A Few Clouds | FEW038 | 28.9 | 22.2 | 67% | 32 | 76.02 | 1013.3 | ||||||
| 08 | 15:56 | E 33 | 16.09 | A Few Clouds and Breezy | FEW040 | 29 | 22 | 66% | 32 | 76.02 | 0.0 | ||||||
| 08 | 14:56 | E 33 | 16.09 | A Few Clouds and Breezy | FEW040 | 30 | 22 | 62% | 33 | 76.05 | 0.0 | ||||||
| 08 | 13:56 | NE 28 G 41 | 16.09 | Partly Cloudy | SCT038 | 30.6 | 22.2 | 30.6 | 27.2 | 61% | 34 | 76.07 | 1014.1 | ||||
| 08 | 12:56 | E 28 G 43 | 16.09 | Partly Cloudy | SCT038 | 30 | 22.2 | 63% | 33 | 76.12 | 1014.6 | ||||||
| 08 | 11:56 | NE 26 | 16.09 | Partly Cloudy | SCT036 | 30 | 22 | 62% | 33 | 76.15 | 0.0 | ||||||
| 08 | 10:56 | NE 24 G 35 | 16.09 | Partly Cloudy | SCT035 | 31 | 22 | 59% | 35 | 76.17 | 0.0 | ||||||
| 08 | 09:56 | E 20 | 16.09 | Partly Cloudy | SCT035 | 29.4 | 20.6 | 59% | 32 | 76.2 | 1015.8 | ||||||
| 08 | 08:56 | E 17 | 16.09 | A Few Clouds | FEW032 | 28 | 20 | 62% | 30 | 76.23 | 0.0 | ||||||
| 08 | 07:56 | E 11 | 16.09 | A Few Clouds | FEW030 | 27 | 21 | 70% | 29 | 76.2 | 0.0 | ||||||
| 08 | 06:56 | Calm | 16.09 | Partly Cloudy | SCT028 | 25.6 | 20.6 | 74% | 27 | 76.17 | 1015.6 | ||||||
| 08 | 05:56 | Calm | 16.09 | Partly Cloudy | SCT028 | 25 | 21 | 79% | 26 | 76.15 | 0.0 | ||||||
| 08 | 04:56 | S 6 | 16.09 | A Few Clouds | FEW022 | 25 | 21 | 79% | 26 | 76.15 | 0.0 | ||||||
| 08 | 03:56 | Calm | 16.09 | Fair | CLR | 25 | 21 | 79% | 26 | 76.12 | 0.0 | ||||||
| 08 | 02:56 | Calm | 16.09 | A Few Clouds | FEW025 | 25 | 21 | 79% | 26 | 76.12 | 0.0 | ||||||
| 08 | 01:56 | SE 6 | 16.09 | A Few Clouds | FEW025 | 26 | 22 | 79% | 28 | 76.17 | 0.0 | ||||||
| 08 | 00:56 | E 9 | 16.09 | Partly Cloudy | SCT025 | 26 | 22 | 79% | 28 | 76.2 | 0.0 | ||||||
| 07 | 23:56 | E 9 | 16.09 | Partly Cloudy | SCT027 | 27 | 22 | 74% | 29 | 76.25 | 0.0 | ||||||
| 07 | 22:56 | E 9 | 16.09 | A Few Clouds | FEW022 | 26.1 | 22.2 | 79% | 28 | 76.3 | 1017.0 | ||||||
| 07 | 21:56 | E 11 | 16.09 | A Few Clouds | FEW027 | 26.7 | 22.2 | 76% | 29 | 76.25 | 1016.6 | ||||||
| 07 | 20:56 | E 17 | 16.09 | A Few Clouds | FEW030 FEW045 | 27 | 23 | 79% | 30 | 76.25 | 0.0 | ||||||
| 07 | 19:56 | E 20 | 16.09 | A Few Clouds | FEW030 FEW045 | 27 | 23 | 79% | 30 | 76.23 | 0.0 | ||||||
| 07 | 18:56 | E 20 | 16.09 | A Few Clouds | FEW030 FEW050 | 27 | 23 | 79% | 30 | 76.15 | 0.0 | ||||||
| 07 | 17:56 | E 22 G 39 | 16.09 | Partly Cloudy | FEW030 SCT048 | 28 | 23 | 74% | 31 | 76.12 | 0.0 | ||||||
| 07 | 16:56 | E 33 | 16.09 | Partly Cloudy and Breezy | FEW032 SCT048 | 28 | 23 | 74% | 31 | 76.1 | 0.0 | ||||||
| 07 | 15:56 | E 33 | 16.09 | Partly Cloudy and Breezy | FEW032 SCT048 | 29 | 23 | 70% | 33 | 76.1 | 0.0 | ||||||
| 07 | 14:56 | E 37 | 16.09 | Partly Cloudy and Breezy | FEW037 SCT045 | 30 | 23.3 | 67% | 34 | 76.12 | 1014.8 | ||||||
| 07 | 13:56 | E 35 | 16.09 | A Few Clouds and Breezy | FEW037 | 30 | 23 | 66% | 34 | 76.17 | 0.0 | ||||||
| 07 | 12:56 | NE 28 | 16.09 | Partly Cloudy | FEW028 SCT044 | 31 | 23 | 62% | 35 | 76.23 | 0.0 | ||||||
| 07 | 11:56 | NE 28 | 16.09 | Partly Cloudy | FEW028 SCT040 | 31 | 23 | 62% | 35 | 76.28 | 0.0 | ||||||
| 07 | 10:56 | NE 24 | 16.09 | Partly Cloudy | FEW027 SCT041 | 31 | 23 | 62% | 35 | 76.3 | 0.0 | ||||||
| 07 | 09:56 | NE 26 | 16.09 | Partly Cloudy | FEW027 SCT036 SCT060 | 30 | 24 | 70% | 35 | 76.33 | 0.0 | ||||||
| Date | Time (ast) | Wind (kph) | Vis. (km) | Weather | Sky Cond. | Air | Dwpt | Max. | Min. | Relative Humidity | Wind Chill (°C) | Heat Index (°C) | altimeter (cm) | sea level (mb) | 1 hr | 3 hr | 6 hr |
| 6 hour | |||||||||||||||||
| Temperature (ºC) | Pressure | Precipitation (cm) | |||||||||||||||